createdAt,value
2023-03-10T00:01:16.708Z,95522.55
2023-03-10T00:03:44.826Z,95520.53
2023-03-10T00:06:13.929Z,95519.15
2023-03-10T00:08:41.596Z,95522.51
2023-03-10T00:11:08.522Z,95522.94
2023-03-10T00:13:35.268Z,95525.77
2023-03-10T00:16:02.368Z,95523.18
2023-03-10T00:18:29.265Z,95526.57
2023-03-10T00:20:55.909Z,95523.80
2023-03-10T00:23:22.948Z,95525.13
2023-03-10T00:25:57.279Z,95520.88
2023-03-10T00:28:25.220Z,95521.42
2023-03-10T00:31:07.076Z,95521.80
2023-03-10T00:33:34.695Z,95524.52
2023-03-10T00:36:07.770Z,95524.91
2023-03-10T00:38:36.147Z,95517.83
2023-03-10T00:41:06.077Z,95515.66
2023-03-10T00:43:33.932Z,95509.07
2023-03-10T00:46:00.721Z,95502.13
2023-03-10T00:48:28.509Z,95499.73
2023-03-10T00:50:56.269Z,95494.20
2023-03-10T00:53:23.464Z,95493.23
2023-03-10T00:56:11.939Z,95491.79
2023-03-10T00:58:38.662Z,95490.69
2023-03-10T01:01:18.138Z,95490.20
2023-03-10T01:03:45.963Z,95492.05
2023-03-10T01:06:13.224Z,95493.56
2023-03-10T01:08:40.157Z,95493.95
2023-03-10T01:11:06.909Z,95496.34
2023-03-10T01:13:34.250Z,95488.28
2023-03-10T01:16:01.383Z,95487.36
2023-03-10T01:18:28.440Z,95486.94
2023-03-10T01:20:55.106Z,95484.08
2023-03-10T01:23:24.298Z,95483.81
2023-03-10T01:25:51.836Z,95481.36
2023-03-10T01:28:20.047Z,95481.07
2023-03-10T01:30:48.304Z,95485.55
2023-03-10T01:33:16.004Z,95493.20
2023-03-10T01:35:43.699Z,95496.56
2023-03-10T01:38:11.390Z,95496.94
2023-03-10T01:40:38.975Z,95499.29
2023-03-10T01:43:19.320Z,95503.14
2023-03-10T01:45:45.940Z,95498.48
2023-03-10T01:48:15.044Z,95489.15
2023-03-10T01:50:44.644Z,95487.48
2023-03-10T01:53:13.945Z,95483.59
2023-03-10T01:55:46.018Z,95483.38
2023-03-10T01:58:16.143Z,95486.00
2023-03-10T02:00:43.531Z,95487.39
2023-03-10T02:03:16.980Z,95495.75
2023-03-10T02:05:56.730Z,95502.84
2023-03-10T02:08:26.549Z,95499.42
2023-03-10T02:10:54.111Z,95500.35
2023-03-10T02:13:21.781Z,95503.50
2023-03-10T02:15:49.120Z,95504.76
2023-03-10T02:18:19.547Z,95507.29
2023-03-10T02:21:20.593Z,95504.39
2023-03-10T02:24:08.424Z,95502.73
2023-03-10T02:26:41.376Z,95497.89
2023-03-10T02:29:13.279Z,95502.02
2023-03-10T02:31:41.421Z,95502.59
2023-03-10T02:34:08.598Z,95500.38
2023-03-10T02:36:36.474Z,95505.73
2023-03-10T02:39:03.898Z,95505.56
2023-03-10T02:41:36.528Z,95507.70
2023-03-10T02:44:11.440Z,95508.75
2023-03-10T02:46:38.686Z,95506.92
2023-03-10T02:49:09.981Z,95504.86
2023-03-10T02:51:43.534Z,95506.76
2023-03-10T02:54:14.267Z,95511.84
2023-03-10T02:56:42.555Z,95509.34
2023-03-10T02:59:11.017Z,95507.54
2023-03-10T03:01:41.817Z,95508.29
2023-03-10T03:04:08.894Z,95507.61
2023-03-10T03:06:36.056Z,95508.73
2023-03-10T03:09:02.926Z,95501.92
2023-03-10T03:11:30.152Z,95497.16
2023-03-10T03:13:57.500Z,95496.66
2023-03-10T03:16:24.579Z,95488.86
2023-03-10T03:18:54.463Z,95488.67
2023-03-10T03:21:21.608Z,95491.64
2023-03-10T03:23:48.788Z,95489.15
2023-03-10T03:26:22.993Z,95491.04
2023-03-10T03:28:51.781Z,95496.59
2023-03-10T03:31:23.621Z,95496.15
2023-03-10T03:33:53.314Z,95497.59
2023-03-10T03:36:20.916Z,95496.98
2023-03-10T03:38:47.646Z,95491.23
2023-03-10T03:41:15.212Z,95483.85
2023-03-10T03:43:42.765Z,95483.05
2023-03-10T03:46:09.583Z,95479.34
2023-03-10T03:48:36.353Z,95473.71
2023-03-10T03:51:03.537Z,95474.41
2023-03-10T03:53:35.481Z,95475.48
2023-03-10T03:56:02.821Z,95477.16
2023-03-10T03:58:31.396Z,95468.13
2023-03-10T04:00:57.978Z,95470.66
2023-03-10T04:03:25.372Z,95468.23
2023-03-10T04:05:52.649Z,95463.77
2023-03-10T04:08:19.904Z,95468.13
2023-03-10T04:10:54.686Z,95467.00
2023-03-10T04:13:23.802Z,95465.70
2023-03-10T04:15:57.789Z,95464.19
2023-03-10T04:18:25.603Z,95463.23
2023-03-10T04:20:52.495Z,95459.71
2023-03-10T04:23:19.926Z,95461.63
2023-03-10T04:25:47.052Z,95461.54
2023-03-10T04:28:14.308Z,95456.81
2023-03-10T04:30:43.360Z,95455.23
2023-03-10T04:33:11.676Z,95456.13
2023-03-10T04:35:41.955Z,95452.42
2023-03-10T04:38:09.350Z,95446.62
2023-03-10T04:40:36.199Z,95445.52
2023-03-10T04:43:03.270Z,95444.88
2023-03-10T04:45:31.423Z,95441.55
2023-03-10T04:47:58.565Z,95442.02
2023-03-10T04:50:26.013Z,95442.88
2023-03-10T04:52:53.076Z,95445.61
2023-03-10T04:55:23.305Z,95442.96
2023-03-10T04:57:50.659Z,95445.61
2023-03-10T05:00:19.453Z,95444.58
2023-03-10T05:02:46.524Z,95443.90
2023-03-10T05:05:13.542Z,95442.02
2023-03-10T05:07:42.632Z,95441.77
2023-03-10T05:10:10.914Z,95441.20
2023-03-10T05:12:39.429Z,95441.14
2023-03-10T05:15:08.074Z,95437.45
2023-03-10T05:17:34.718Z,95436.62
2023-03-10T05:20:01.784Z,95435.08
2023-03-10T05:22:29.230Z,95440.05
2023-03-10T05:24:56.161Z,95442.60
2023-03-10T05:27:24.131Z,95450.14
2023-03-10T05:29:51.292Z,95451.53
2023-03-10T05:32:21.030Z,95454.41
2023-03-10T05:34:48.247Z,95460.07
2023-03-10T05:37:15.292Z,95460.78
2023-03-10T05:39:43.461Z,95460.15
2023-03-10T05:42:12.251Z,95458.69
2023-03-10T05:44:39.613Z,95458.11
2023-03-10T05:47:07.436Z,95455.38
2023-03-10T05:49:36.682Z,95454.54
2023-03-10T05:52:04.450Z,95455.34
2023-03-10T05:54:31.685Z,95456.56
2023-03-10T05:56:58.455Z,95455.71
2023-03-10T05:59:26.916Z,95460.06
2023-03-10T06:01:53.799Z,95457.04
2023-03-10T06:04:20.539Z,95462.83
2023-03-10T06:06:47.304Z,95464.66
2023-03-10T06:09:14.030Z,95461.83
2023-03-10T06:11:40.752Z,95461.52
2023-03-10T06:14:07.364Z,95463.86
2023-03-10T06:16:34.022Z,95464.77
2023-03-10T06:19:00.944Z,95465.96
2023-03-10T06:21:28.837Z,95467.36
2023-03-10T06:23:56.190Z,95466.33
2023-03-10T06:26:23.796Z,95464.23
2023-03-10T06:28:50.559Z,95466.20
2023-03-10T06:31:20.995Z,95469.23
2023-03-10T06:33:47.910Z,95470.29
2023-03-10T06:36:16.263Z,95469.90
2023-03-10T06:38:42.963Z,95464.43
2023-03-10T06:41:09.499Z,95459.81
2023-03-10T06:43:36.647Z,95451.80
2023-03-10T06:46:08.796Z,95451.14
2023-03-10T06:48:36.805Z,95448.75
2023-03-10T06:51:08.144Z,95448.96
2023-03-10T06:53:35.377Z,95443.92
2023-03-10T06:56:06.061Z,95440.03
2023-03-10T06:58:35.421Z,95438.96
2023-03-10T07:01:03.157Z,95436.53
2023-03-10T07:03:30.326Z,95428.73
2023-03-10T07:05:58.818Z,95421.34
2023-03-10T07:08:29.282Z,95418.71
2023-03-10T07:10:56.600Z,95412.29
2023-03-10T07:13:24.148Z,95414.45
2023-03-10T07:15:51.430Z,95409.79
2023-03-10T07:18:18.433Z,95407.63
2023-03-10T07:20:47.497Z,95397.95
2023-03-10T07:23:15.258Z,95394.40
2023-03-10T07:25:42.048Z,95391.00
2023-03-10T07:28:08.931Z,95389.36
2023-03-10T07:30:37.223Z,95388.96
2023-03-10T07:33:04.244Z,95389.86
2023-03-10T07:35:30.798Z,95395.53
2023-03-10T07:37:57.624Z,95396.70
2023-03-10T07:40:24.537Z,95397.38
2023-03-10T07:42:54.048Z,95389.81
2023-03-10T07:45:22.317Z,95392.80
2023-03-10T07:47:53.787Z,95387.09
2023-03-10T07:50:21.765Z,95384.92
2023-03-10T07:52:50.017Z,95381.58
2023-03-10T07:55:17.913Z,95375.96
2023-03-10T07:57:44.740Z,95375.08
2023-03-10T08:00:12.490Z,95366.60
2023-03-10T08:02:40.746Z,95368.70
2023-03-10T08:05:10.125Z,95367.95
2023-03-10T08:07:37.832Z,95363.94
2023-03-10T08:10:05.337Z,95362.06
2023-03-10T08:12:33.159Z,95357.45
2023-03-10T08:14:59.978Z,95353.44
2023-03-10T08:17:30.241Z,95348.52
2023-03-10T08:19:58.006Z,95342.34
2023-03-10T08:22:25.874Z,95339.79
2023-03-10T08:24:53.410Z,95334.86
2023-03-10T08:27:21.180Z,95336.86
2023-03-10T08:29:47.826Z,95330.41
2023-03-10T08:32:14.718Z,95329.42
2023-03-10T08:34:42.621Z,95328.61
2023-03-10T08:37:09.805Z,95322.72
2023-03-10T08:39:36.838Z,95321.80
2023-03-10T08:42:03.632Z,95314.48
2023-03-10T08:44:30.238Z,95310.48
2023-03-10T08:46:57.251Z,95308.83
2023-03-10T08:49:23.946Z,95306.55
2023-03-10T08:51:50.657Z,95305.80
2023-03-10T08:54:20.183Z,95296.18
2023-03-10T08:56:47.832Z,95290.59
2023-03-10T08:59:15.157Z,95285.34
2023-03-10T09:01:41.855Z,95288.27
2023-03-10T09:04:10.039Z,95288.02
2023-03-10T09:06:37.979Z,95286.27
2023-03-10T09:09:06.445Z,95278.08
2023-03-10T09:11:38.444Z,95272.75
2023-03-10T09:14:08.402Z,95272.98
2023-03-10T09:16:36.000Z,95273.16
2023-03-10T09:19:03.397Z,95274.02
2023-03-10T09:21:33.546Z,95269.77
2023-03-10T09:24:01.540Z,95271.25
2023-03-10T09:26:28.134Z,95264.75
2023-03-10T09:28:57.010Z,95265.83
2023-03-10T09:31:32.287Z,95267.19
2023-03-10T09:33:58.949Z,95266.36
2023-03-10T09:36:25.798Z,95261.48
2023-03-10T09:38:52.470Z,95260.98
2023-03-10T09:41:52.530Z,95252.58
2023-03-10T09:44:25.668Z,95249.98
2023-03-10T09:47:10.632Z,95246.64
2023-03-10T09:49:39.445Z,95248.14
2023-03-10T09:52:20.762Z,95246.67
2023-03-10T09:55:16.561Z,95252.65
2023-03-10T09:57:47.207Z,95254.60
2023-03-10T10:00:23.816Z,95249.23
2023-03-10T10:02:59.425Z,95246.45
2023-03-10T10:05:32.405Z,95246.84
2023-03-10T10:08:04.493Z,95244.99
2023-03-10T10:10:36.332Z,95242.36
2023-03-10T10:13:14.445Z,95234.80
2023-03-10T10:15:45.858Z,95235.58
2023-03-10T10:18:19.593Z,95235.00
2023-03-10T10:20:48.140Z,95229.88
2023-03-10T10:23:20.945Z,95225.27
2023-03-10T10:25:50.287Z,95208.77
2023-03-10T10:28:29.500Z,95204.27
2023-03-10T10:31:11.147Z,95199.57
2023-03-10T10:33:53.187Z,95194.41
2023-03-10T10:36:19.972Z,95195.74
2023-03-10T10:38:52.182Z,95188.83
2023-03-10T10:41:30.783Z,95197.61
2023-03-10T10:44:09.202Z,95193.36
2023-03-10T10:46:35.891Z,95195.42
2023-03-10T10:49:18.449Z,95194.38
2023-03-10T10:51:58.961Z,95197.98
2023-03-10T10:54:32.005Z,95185.22
2023-03-10T10:57:01.034Z,95179.34
2023-03-10T10:59:32.998Z,95168.16
2023-03-10T11:02:22.104Z,95169.46
2023-03-10T11:04:49.396Z,95160.77
2023-03-10T11:07:18.933Z,95154.11
2023-03-10T11:09:47.359Z,95145.73
2023-03-10T11:12:25.374Z,95147.39
2023-03-10T11:15:06.389Z,95143.48
2023-03-10T11:17:39.625Z,95140.55
2023-03-10T11:20:30.253Z,95136.52
2023-03-10T11:23:05.745Z,95137.45
2023-03-10T11:26:13.793Z,95132.61
2023-03-10T11:28:56.764Z,95130.11
2023-03-10T11:31:54.658Z,95124.61
2023-03-10T11:34:30.508Z,95126.52
2023-03-10T11:36:57.476Z,95122.84
2023-03-10T11:39:36.693Z,95112.90
2023-03-10T11:42:23.253Z,95097.52
2023-03-10T11:45:20.217Z,95083.85
2023-03-10T11:48:08.504Z,95086.92
2023-03-10T11:50:59.239Z,95088.58
2023-03-10T11:53:44.810Z,95080.81
2023-03-10T11:56:16.803Z,95076.33
2023-03-10T11:59:13.560Z,95081.02
2023-03-10T12:01:55.369Z,95079.77
2023-03-10T12:04:40.294Z,95077.24
2023-03-10T12:07:10.187Z,95073.93
2023-03-10T12:09:45.961Z,95069.89
2023-03-10T12:12:16.808Z,95058.69
2023-03-10T12:14:45.301Z,95056.68
2023-03-10T12:17:14.525Z,95052.07
2023-03-10T12:20:15.962Z,95051.26
2023-03-10T12:22:50.874Z,95049.53
2023-03-10T12:25:29.455Z,95048.88
2023-03-10T12:28:17.754Z,95048.92
2023-03-10T12:31:03.713Z,95044.35
2023-03-10T12:33:30.445Z,95036.54
2023-03-10T12:35:57.032Z,95035.13
2023-03-10T12:38:42.835Z,95031.91
2023-03-10T12:41:10.154Z,95030.95
2023-03-10T12:43:36.812Z,95029.35
2023-03-10T12:46:07.422Z,95021.50
2023-03-10T12:48:38.529Z,95021.65
2023-03-10T12:51:12.428Z,95016.98
2023-03-10T12:53:58.146Z,95017.70
2023-03-10T12:56:41.568Z,95017.02
2023-03-10T12:59:39.530Z,95017.35
2023-03-10T13:02:33.869Z,95016.64
2023-03-10T13:05:05.925Z,95017.43
2023-03-10T13:07:35.135Z,95010.13
2023-03-10T13:10:02.942Z,95011.30
2023-03-10T13:12:37.074Z,95008.48
2023-03-10T13:15:07.703Z,95003.80
2023-03-10T13:17:34.351Z,94997.73
2023-03-10T13:20:18.276Z,94992.76
2023-03-10T13:22:55.595Z,94988.64
2023-03-10T13:25:22.870Z,94986.85
2023-03-10T13:27:49.797Z,94978.30
2023-03-10T13:30:22.419Z,94979.30
2023-03-10T13:33:01.740Z,94973.08
2023-03-10T13:35:37.316Z,94963.75
2023-03-10T13:38:11.762Z,94964.14
2023-03-10T13:40:44.577Z,94968.11
2023-03-10T13:43:33.544Z,94962.98
2023-03-10T13:46:02.626Z,94967.64
2023-03-10T13:48:31.782Z,94968.89
2023-03-10T13:51:16.692Z,94967.52
2023-03-10T13:53:44.783Z,94962.84
2023-03-10T13:56:18.853Z,94962.13
2023-03-10T13:58:46.868Z,94955.74
2023-03-10T14:01:24.155Z,94954.27
2023-03-10T14:03:56.056Z,94950.08
2023-03-10T14:06:23.116Z,94950.79
2023-03-10T14:08:50.711Z,94948.01
2023-03-10T14:11:21.683Z,94943.50
2023-03-10T14:13:48.727Z,94946.24
2023-03-10T14:16:15.275Z,94940.73
2023-03-10T14:18:43.104Z,94939.04
2023-03-10T14:22:02.941Z,94938.23
2023-03-10T14:24:29.557Z,94937.05
2023-03-10T14:27:00.258Z,94931.34
2023-03-10T14:29:26.972Z,94924.38
2023-03-10T14:31:53.723Z,94917.68
2023-03-10T14:34:22.831Z,94916.80
2023-03-10T14:36:49.455Z,94912.34
2023-03-10T14:39:16.136Z,94910.13
2023-03-10T14:41:42.727Z,94906.71
2023-03-10T14:44:10.026Z,94900.73
2023-03-10T14:46:36.913Z,94899.67
2023-03-10T14:49:07.284Z,94894.09
2023-03-10T14:51:36.279Z,94889.56
2023-03-10T14:54:03.514Z,94889.11
2023-03-10T14:56:32.062Z,94885.45
2023-03-10T14:59:01.546Z,94886.46
2023-03-10T15:01:28.893Z,94885.36
2023-03-10T15:03:55.752Z,94878.06
2023-03-10T15:06:22.569Z,94877.42
2023-03-10T15:08:49.141Z,94874.63
2023-03-10T15:11:24.036Z,94872.45
2023-03-10T15:13:57.797Z,94870.34
2023-03-10T15:16:24.645Z,94866.54
2023-03-10T15:18:52.547Z,94857.91
2023-03-10T15:21:19.769Z,94852.46
2023-03-10T15:23:46.672Z,94848.66
2023-03-10T15:26:13.457Z,94845.00
2023-03-10T15:28:40.192Z,94844.46
2023-03-10T15:31:06.983Z,94841.04
2023-03-10T15:33:33.614Z,94832.80
2023-03-10T15:36:00.329Z,94829.45
2023-03-10T15:38:27.260Z,94825.33
2023-03-10T15:40:53.932Z,94824.71
2023-03-10T15:43:20.539Z,94823.48
2023-03-10T15:45:48.737Z,94818.26
2023-03-10T15:48:16.506Z,94814.61
2023-03-10T15:50:46.403Z,94811.36
2023-03-10T15:53:13.662Z,94805.21
2023-03-10T15:55:41.866Z,94804.11
2023-03-10T15:58:10.395Z,94797.42
2023-03-10T16:00:37.012Z,94795.80
2023-03-10T16:03:03.611Z,94793.92
2023-03-10T16:05:30.262Z,94788.09
2023-03-10T16:07:56.967Z,94786.05
2023-03-10T16:10:23.603Z,94784.96
2023-03-10T16:12:50.938Z,94781.42
2023-03-10T16:15:18.473Z,94782.19
2023-03-10T16:17:45.424Z,94777.83
2023-03-10T16:20:13.224Z,94774.23
2023-03-10T16:22:42.329Z,94767.77
2023-03-10T16:25:15.129Z,94767.59
2023-03-10T16:27:43.882Z,94766.80
2023-03-10T16:30:12.637Z,94758.70
2023-03-10T16:32:39.456Z,94758.36
2023-03-10T16:35:07.370Z,94756.16
2023-03-10T16:37:34.410Z,94753.05
2023-03-10T16:40:01.471Z,94748.38
2023-03-10T16:42:28.346Z,94746.19
2023-03-10T16:44:56.251Z,94748.23
2023-03-10T16:47:23.009Z,94747.04
2023-03-10T16:49:49.804Z,94745.48
2023-03-10T16:52:16.616Z,94745.19
2023-03-10T16:54:45.116Z,94742.23
2023-03-10T16:57:13.461Z,94737.42
2023-03-10T16:59:41.854Z,94732.47
2023-03-10T17:02:18.134Z,94730.02
2023-03-10T17:04:45.252Z,94729.89
2023-03-10T17:07:11.959Z,94723.88
2023-03-10T17:09:38.707Z,94725.77
2023-03-10T17:12:06.448Z,94720.30
2023-03-10T17:14:33.244Z,94718.48
2023-03-10T17:17:00.854Z,94718.97
2023-03-10T17:19:30.506Z,94719.87
2023-03-10T17:21:58.427Z,94720.27
2023-03-10T17:24:25.969Z,94718.98
2023-03-10T17:26:53.026Z,94712.56
2023-03-10T17:29:19.744Z,94711.29
2023-03-10T17:31:50.921Z,94710.23
2023-03-10T17:34:19.372Z,94710.28
2023-03-10T17:36:49.084Z,94711.81
2023-03-10T17:39:18.951Z,94709.90
2023-03-10T17:41:47.178Z,94708.17
2023-03-10T17:44:14.592Z,94707.73
2023-03-10T17:46:41.521Z,94703.50
2023-03-10T17:49:11.681Z,94703.30
2023-03-10T17:51:42.881Z,94702.09
2023-03-10T17:54:13.425Z,94696.30
2023-03-10T17:56:40.480Z,94693.73
2023-03-10T17:59:10.156Z,94696.47
2023-03-10T18:01:36.760Z,94688.80
2023-03-10T18:04:03.496Z,94689.16
2023-03-10T18:06:33.936Z,94685.46
2023-03-10T18:09:04.068Z,94683.14
2023-03-10T18:11:32.235Z,94684.57
2023-03-10T18:14:02.397Z,94680.23
2023-03-10T18:16:34.550Z,94675.60
2023-03-10T18:19:01.278Z,94673.76
2023-03-10T18:21:28.076Z,94674.67
2023-03-10T18:23:55.198Z,94668.15
2023-03-10T18:26:28.973Z,94667.52
2023-03-10T18:28:56.474Z,94660.75
2023-03-10T18:31:26.968Z,94659.04
2023-03-10T18:33:54.487Z,94658.14
2023-03-10T18:36:23.485Z,94658.60
2023-03-10T18:38:51.172Z,94659.06
2023-03-10T18:41:19.677Z,94653.65
2023-03-10T18:43:46.460Z,94650.32
2023-03-10T18:46:13.658Z,94644.95
2023-03-10T18:48:41.161Z,94640.97
2023-03-10T18:51:07.900Z,94642.30
2023-03-10T18:53:34.496Z,94642.02
2023-03-10T18:56:01.137Z,94640.17
2023-03-10T18:58:29.232Z,94642.20
2023-03-10T19:00:56.221Z,94637.48
2023-03-10T19:03:22.842Z,94635.32
2023-03-10T19:05:53.692Z,94631.83
2023-03-10T19:08:26.394Z,94627.48
2023-03-10T19:10:55.430Z,94623.00
2023-03-10T19:13:23.240Z,94623.14
2023-03-10T19:15:50.385Z,94622.24
2023-03-10T19:18:18.052Z,94616.73
2023-03-10T19:20:45.955Z,94615.78
2023-03-10T19:23:14.096Z,94613.92
2023-03-10T19:25:41.023Z,94611.94
2023-03-10T19:28:07.881Z,94612.66
2023-03-10T19:30:35.323Z,94612.59
2023-03-10T19:33:02.364Z,94607.95
2023-03-10T19:35:29.036Z,94608.69
2023-03-10T19:37:59.935Z,94606.30
2023-03-10T19:40:26.785Z,94608.06
2023-03-10T19:42:53.622Z,94603.74
2023-03-10T19:45:20.270Z,94602.27
2023-03-10T19:47:46.956Z,94598.48
2023-03-10T19:50:16.614Z,94595.88
2023-03-10T19:52:48.600Z,94591.61
2023-03-10T19:55:18.961Z,94591.76
2023-03-10T19:57:47.996Z,94588.96
2023-03-10T20:00:16.775Z,94589.93
2023-03-10T20:02:44.351Z,94589.59
2023-03-10T20:05:14.225Z,94588.07
2023-03-10T20:07:43.666Z,94581.53
2023-03-10T20:10:10.783Z,94583.45
2023-03-10T20:12:37.522Z,94578.88
2023-03-10T20:15:04.972Z,94583.30
2023-03-10T20:17:31.660Z,94573.11
2023-03-10T20:19:58.470Z,94568.95
2023-03-10T20:22:25.010Z,94569.52
2023-03-10T20:24:52.241Z,94563.30
2023-03-10T20:27:18.926Z,94565.39
2023-03-10T20:29:45.654Z,94562.81
2023-03-10T20:32:12.541Z,94560.77
2023-03-10T20:34:40.688Z,94560.16
2023-03-10T20:37:07.713Z,94557.20
2023-03-10T20:39:34.378Z,94553.77
2023-03-10T20:42:00.991Z,94551.92
2023-03-10T20:44:27.725Z,94553.19
2023-03-10T20:46:54.370Z,94546.00
2023-03-10T20:49:23.443Z,94536.95
2023-03-10T20:51:50.227Z,94532.09
2023-03-10T20:54:17.728Z,94525.66
2023-03-10T20:56:44.362Z,94521.33
2023-03-10T20:59:10.947Z,94520.71
2023-03-10T21:01:41.672Z,94522.33
2023-03-10T21:04:08.816Z,94516.51
2023-03-10T21:06:36.796Z,94514.44
2023-03-10T21:09:05.201Z,94512.11
2023-03-10T21:11:33.848Z,94506.28
2023-03-10T21:14:00.702Z,94507.27
2023-03-10T21:16:27.662Z,94504.33
2023-03-10T21:18:54.406Z,94501.70
2023-03-10T21:21:21.034Z,94501.81
2023-03-10T21:23:47.873Z,94501.12
2023-03-10T21:26:18.187Z,94501.61
2023-03-10T21:28:45.800Z,94503.57
2023-03-10T21:31:14.223Z,94505.46
2023-03-10T21:33:41.112Z,94500.60
2023-03-10T21:36:14.761Z,94493.42
2023-03-10T21:38:41.953Z,94495.50
2023-03-10T21:41:09.014Z,94489.59
2023-03-10T21:43:35.728Z,94489.37
2023-03-10T21:46:02.534Z,94485.29
2023-03-10T21:48:29.374Z,94487.23
2023-03-10T21:50:56.187Z,94479.73
2023-03-10T21:53:25.901Z,94478.30
2023-03-10T21:55:53.773Z,94475.58
2023-03-10T21:58:22.759Z,94473.30
2023-03-10T22:00:49.560Z,94471.67
2023-03-10T22:03:21.550Z,94472.69
2023-03-10T22:05:49.186Z,94471.45
2023-03-10T22:08:15.966Z,94471.77
2023-03-10T22:10:42.592Z,94467.97
2023-03-10T22:13:09.223Z,94464.60
2023-03-10T22:15:35.843Z,94461.84
2023-03-10T22:18:03.058Z,94459.48
2023-03-10T22:20:29.988Z,94459.73
2023-03-10T22:22:57.118Z,94460.60
2023-03-10T22:25:24.478Z,94461.39
2023-03-10T22:27:53.706Z,94464.21
2023-03-10T22:30:21.852Z,94466.27
2023-03-10T22:32:48.960Z,94466.55
2023-03-10T22:35:16.125Z,94467.30
2023-03-10T22:37:43.293Z,94457.45
2023-03-10T22:40:15.616Z,94458.90
2023-03-10T22:42:43.477Z,94458.75
2023-03-10T22:45:25.136Z,94459.92
2023-03-10T22:47:54.267Z,94456.17
2023-03-10T22:50:39.905Z,94452.25
2023-03-10T22:53:11.613Z,94453.27
2023-03-10T22:55:38.298Z,94447.23
2023-03-10T22:58:06.485Z,94441.45
2023-03-10T23:00:34.109Z,94437.12
2023-03-10T23:03:01.697Z,94435.07
2023-03-10T23:05:28.668Z,94431.34
2023-03-10T23:07:56.323Z,94434.19
2023-03-10T23:10:26.104Z,94433.52
2023-03-10T23:12:54.585Z,94433.39
2023-03-10T23:15:25.689Z,94435.01
2023-03-10T23:17:53.880Z,94435.73
2023-03-10T23:20:26.156Z,94435.38
2023-03-10T23:22:54.886Z,94434.40
2023-03-10T23:25:29.204Z,94438.60
2023-03-10T23:27:56.698Z,94440.16
2023-03-10T23:30:24.590Z,94444.23
2023-03-10T23:32:52.271Z,94436.56
2023-03-10T23:35:23.196Z,94429.19
2023-03-10T23:37:49.897Z,94421.34
2023-03-10T23:40:19.080Z,94419.95
2023-03-10T23:42:46.797Z,94418.58
2023-03-10T23:45:16.702Z,94419.20
2023-03-10T23:47:44.140Z,94414.33
2023-03-10T23:50:22.620Z,94418.08
2023-03-10T23:52:50.341Z,94415.06
2023-03-10T23:55:24.126Z,94412.65
2023-03-10T23:57:50.855Z,94414.14
